sensor_id;sensor_type;location;lat;lon;timestamp;P1;durP1;ratioP1;P2;durP2;ratioP2
45784;SDS011;31489;51.404;5.474;2022-10-16T00:01:26;4.88;;;2.42;;
45784;SDS011;31489;51.404;5.474;2022-10-16T00:03:54;3.72;;;2.45;;
45784;SDS011;31489;51.404;5.474;2022-10-16T00:06:21;3.67;;;2.50;;
45784;SDS011;31489;51.404;5.474;2022-10-16T00:08:47;4.20;;;2.38;;
45784;SDS011;31489;51.404;5.474;2022-10-16T00:13:47;4.60;;;2.53;;
45784;SDS011;31489;51.404;5.474;2022-10-16T00:16:14;5.07;;;2.60;;
45784;SDS011;31489;51.404;5.474;2022-10-16T00:18:40;7.07;;;2.47;;
45784;SDS011;31489;51.404;5.474;2022-10-16T00:21:07;4.60;;;2.45;;
45784;SDS011;31489;51.404;5.474;2022-10-16T00:23:38;5.60;;;2.88;;
45784;SDS011;31489;51.404;5.474;2022-10-16T00:26:05;4.00;;;2.10;;
45784;SDS011;31489;51.404;5.474;2022-10-16T00:28:33;2.65;;;2.38;;
45784;SDS011;31489;51.404;5.474;2022-10-16T00:31:02;4.93;;;2.10;;
45784;SDS011;31489;51.404;5.474;2022-10-16T00:33:32;5.78;;;2.40;;
45784;SDS011;31489;51.404;5.474;2022-10-16T00:35:59;4.43;;;2.10;;
45784;SDS011;31489;51.404;5.474;2022-10-16T00:38:25;4.72;;;2.22;;
45784;SDS011;31489;51.404;5.474;2022-10-16T00:40:51;5.85;;;2.70;;
45784;SDS011;31489;51.404;5.474;2022-10-16T00:46:48;4.43;;;2.05;;
45784;SDS011;31489;51.404;5.474;2022-10-16T00:48:57;3.28;;;1.95;;
45784;SDS011;31489;51.404;5.474;2022-10-16T00:51:30;2.63;;;1.70;;
45784;SDS011;31489;51.404;5.474;2022-10-16T00:54:02;3.97;;;2.20;;
45784;SDS011;31489;51.404;5.474;2022-10-16T00:56:33;7.97;;;1.90;;
45784;SDS011;31489;51.404;5.474;2022-10-16T00:58:58;3.38;;;1.90;;
45784;SDS011;31489;51.404;5.474;2022-10-16T01:01:27;4.45;;;1.77;;
45784;SDS011;31489;51.404;5.474;2022-10-16T01:03:53;4.90;;;1.88;;
45784;SDS011;31489;51.404;5.474;2022-10-16T01:06:21;2.10;;;1.67;;
45784;SDS011;31489;51.404;5.474;2022-10-16T01:11:23;2.65;;;1.90;;
45784;SDS011;31489;51.404;5.474;2022-10-16T01:13:58;3.10;;;1.80;;
45784;SDS011;31489;51.404;5.474;2022-10-16T01:22:15;5.70;;;2.65;;
45784;SDS011;31489;51.404;5.474;2022-10-16T01:24:44;5.55;;;1.70;;
45784;SDS011;31489;51.404;5.474;2022-10-16T01:30:23;2.28;;;1.60;;
45784;SDS011;31489;51.404;5.474;2022-10-16T01:32:57;3.20;;;1.88;;
45784;SDS011;31489;51.404;5.474;2022-10-16T01:35:37;2.10;;;1.67;;
45784;SDS011;31489;51.404;5.474;2022-10-16T01:38:08;2.63;;;1.60;;
45784;SDS011;31489;51.404;5.474;2022-10-16T01:40:36;3.13;;;1.60;;
45784;SDS011;31489;51.404;5.474;2022-10-16T01:43:08;2.15;;;1.48;;
45784;SDS011;31489;51.404;5.474;2022-10-16T01:45:37;2.65;;;1.83;;
45784;SDS011;31489;51.404;5.474;2022-10-16T01:48:04;2.80;;;1.60;;
45784;SDS011;31489;51.404;5.474;2022-10-16T01:50:33;4.65;;;1.70;;
45784;SDS011;31489;51.404;5.474;2022-10-16T01:53:02;4.18;;;1.67;;
45784;SDS011;31489;51.404;5.474;2022-10-16T01:55:34;5.15;;;1.50;;
45784;SDS011;31489;51.404;5.474;2022-10-16T01:58:03;2.70;;;1.52;;
45784;SDS011;31489;51.404;5.474;2022-10-16T02:00:32;1.60;;;1.38;;
45784;SDS011;31489;51.404;5.474;2022-10-16T02:03:01;1.55;;;1.17;;
45784;SDS011;31489;51.404;5.474;2022-10-16T02:05:31;4.55;;;1.60;;
45784;SDS011;31489;51.404;5.474;2022-10-16T02:08:03;2.53;;;1.23;;
45784;SDS011;31489;51.404;5.474;2022-10-16T02:10:29;3.17;;;1.30;;
45784;SDS011;31489;51.404;5.474;2022-10-16T02:13:00;1.80;;;1.10;;
45784;SDS011;31489;51.404;5.474;2022-10-16T02:15:27;3.22;;;1.23;;
45784;SDS011;31489;51.404;5.474;2022-10-16T02:17:53;2.20;;;1.27;;
45784;SDS011;31489;51.404;5.474;2022-10-16T02:20:19;1.38;;;1.08;;
45784;SDS011;31489;51.404;5.474;2022-10-16T02:22:52;2.25;;;1.30;;
45784;SDS011;31489;51.404;5.474;2022-10-16T02:25:24;2.70;;;1.25;;
45784;SDS011;31489;51.404;5.474;2022-10-16T02:27:55;3.20;;;1.60;;
45784;SDS011;31489;51.404;5.474;2022-10-16T02:30:33;4.93;;;1.40;;
45784;SDS011;31489;51.404;5.474;2022-10-16T02:33:05;1.90;;;1.08;;
45784;SDS011;31489;51.404;5.474;2022-10-16T02:35:34;2.28;;;1.40;;
45784;SDS011;31489;51.404;5.474;2022-10-16T02:38:01;2.83;;;1.00;;
45784;SDS011;31489;51.404;5.474;2022-10-16T02:40:27;1.33;;;1.02;;
45784;SDS011;31489;51.404;5.474;2022-10-16T02:42:54;0.90;;;0.90;;
45784;SDS011;31489;51.404;5.474;2022-10-16T02:45:22;3.13;;;1.20;;
45784;SDS011;31489;51.404;5.474;2022-10-16T02:47:48;1.88;;;1.25;;
45784;SDS011;31489;51.404;5.474;2022-10-16T02:50:14;2.92;;;1.40;;
45784;SDS011;31489;51.404;5.474;2022-10-16T02:52:40;1.75;;;1.20;;
45784;SDS011;31489;51.404;5.474;2022-10-16T02:55:06;1.77;;;1.30;;
45784;SDS011;31489;51.404;5.474;2022-10-16T02:57:31;4.20;;;1.30;;
45784;SDS011;31489;51.404;5.474;2022-10-16T02:59:57;4.05;;;1.20;;
45784;SDS011;31489;51.404;5.474;2022-10-16T03:02:23;3.33;;;1.00;;
45784;SDS011;31489;51.404;5.474;2022-10-16T03:04:49;3.03;;;1.10;;
45784;SDS011;31489;51.404;5.474;2022-10-16T03:07:14;2.80;;;1.38;;
45784;SDS011;31489;51.404;5.474;2022-10-16T03:09:40;4.05;;;1.10;;
45784;SDS011;31489;51.404;5.474;2022-10-16T03:12:06;1.50;;;1.00;;
45784;SDS011;31489;51.404;5.474;2022-10-16T03:14:32;4.80;;;1.05;;
45784;SDS011;31489;51.404;5.474;2022-10-16T03:16:58;2.42;;;1.13;;
45784;SDS011;31489;51.404;5.474;2022-10-16T03:19:24;4.40;;;1.00;;
45784;SDS011;31489;51.404;5.474;2022-10-16T03:21:49;3.22;;;1.30;;
45784;SDS011;31489;51.404;5.474;2022-10-16T03:24:15;2.17;;;1.10;;
45784;SDS011;31489;51.404;5.474;2022-10-16T03:26:41;2.75;;;1.00;;
45784;SDS011;31489;51.404;5.474;2022-10-16T03:29:06;3.13;;;1.30;;
45784;SDS011;31489;51.404;5.474;2022-10-16T03:31:32;1.65;;;1.02;;
45784;SDS011;31489;51.404;5.474;2022-10-16T03:33:58;2.42;;;0.98;;
45784;SDS011;31489;51.404;5.474;2022-10-16T03:36:23;2.30;;;1.25;;
45784;SDS011;31489;51.404;5.474;2022-10-16T03:38:49;1.55;;;1.10;;
45784;SDS011;31489;51.404;5.474;2022-10-16T03:41:15;2.53;;;1.40;;
45784;SDS011;31489;51.404;5.474;2022-10-16T03:43:40;3.85;;;1.20;;
45784;SDS011;31489;51.404;5.474;2022-10-16T03:46:06;1.20;;;1.00;;
45784;SDS011;31489;51.404;5.474;2022-10-16T03:48:31;4.20;;;1.50;;
45784;SDS011;31489;51.404;5.474;2022-10-16T03:50:57;2.83;;;1.23;;
45784;SDS011;31489;51.404;5.474;2022-10-16T03:53:23;7.80;;;1.27;;
45784;SDS011;31489;51.404;5.474;2022-10-16T03:55:48;2.00;;;1.10;;
45784;SDS011;31489;51.404;5.474;2022-10-16T03:58:14;3.42;;;1.10;;
45784;SDS011;31489;51.404;5.474;2022-10-16T04:00:41;3.97;;;1.20;;
45784;SDS011;31489;51.404;5.474;2022-10-16T04:03:07;5.93;;;1.38;;
45784;SDS011;31489;51.404;5.474;2022-10-16T04:05:33;2.17;;;1.15;;
45784;SDS011;31489;51.404;5.474;2022-10-16T04:07:58;4.38;;;1.30;;
45784;SDS011;31489;51.404;5.474;2022-10-16T04:10:24;1.55;;;1.13;;
45784;SDS011;31489;51.404;5.474;2022-10-16T04:12:50;2.42;;;1.50;;
45784;SDS011;31489;51.404;5.474;2022-10-16T04:15:15;2.05;;;1.35;;
45784;SDS011;31489;51.404;5.474;2022-10-16T04:17:42;1.30;;;1.15;;
45784;SDS011;31489;51.404;5.474;2022-10-16T04:20:07;2.25;;;1.20;;
45784;SDS011;31489;51.404;5.474;2022-10-16T04:22:33;2.58;;;1.48;;
45784;SDS011;31489;51.404;5.474;2022-10-16T04:24:59;2.63;;;1.40;;
45784;SDS011;31489;51.404;5.474;2022-10-16T04:27:24;4.72;;;1.50;;
45784;SDS011;31489;51.404;5.474;2022-10-16T04:29:53;3.15;;;1.52;;
45784;SDS011;31489;51.404;5.474;2022-10-16T04:32:19;1.70;;;1.30;;
45784;SDS011;31489;51.404;5.474;2022-10-16T04:34:44;3.10;;;1.48;;
45784;SDS011;31489;51.404;5.474;2022-10-16T04:37:10;4.03;;;1.50;;
45784;SDS011;31489;51.404;5.474;2022-10-16T04:39:35;2.60;;;1.33;;
45784;SDS011;31489;51.404;5.474;2022-10-16T04:42:01;2.03;;;1.40;;
45784;SDS011;31489;51.404;5.474;2022-10-16T04:44:27;3.05;;;1.30;;
45784;SDS011;31489;51.404;5.474;2022-10-16T04:46:52;3.35;;;1.23;;
45784;SDS011;31489;51.404;5.474;2022-10-16T04:49:18;4.68;;;1.40;;
45784;SDS011;31489;51.404;5.474;2022-10-16T04:51:44;1.95;;;1.20;;
45784;SDS011;31489;51.404;5.474;2022-10-16T04:54:09;2.80;;;1.17;;
45784;SDS011;31489;51.404;5.474;2022-10-16T04:56:35;2.42;;;1.20;;
45784;SDS011;31489;51.404;5.474;2022-10-16T04:59:08;2.97;;;1.40;;
45784;SDS011;31489;51.404;5.474;2022-10-16T05:01:33;5.85;;;1.38;;
45784;SDS011;31489;51.404;5.474;2022-10-16T05:03:59;2.13;;;1.30;;
45784;SDS011;31489;51.404;5.474;2022-10-16T05:06:25;3.25;;;1.30;;
45784;SDS011;31489;51.404;5.474;2022-10-16T05:08:51;1.83;;;1.25;;
45784;SDS011;31489;51.404;5.474;2022-10-16T05:11:16;5.38;;;1.30;;
45784;SDS011;31489;51.404;5.474;2022-10-16T05:13:42;1.92;;;1.30;;
45784;SDS011;31489;51.404;5.474;2022-10-16T05:16:07;1.60;;;1.05;;
45784;SDS011;31489;51.404;5.474;2022-10-16T05:18:33;3.47;;;1.40;;
45784;SDS011;31489;51.404;5.474;2022-10-16T05:20:58;3.03;;;1.30;;
45784;SDS011;31489;51.404;5.474;2022-10-16T05:23:24;2.17;;;1.20;;
45784;SDS011;31489;51.404;5.474;2022-10-16T05:25:56;2.58;;;1.40;;
45784;SDS011;31489;51.404;5.474;2022-10-16T05:28:23;3.10;;;1.63;;
45784;SDS011;31489;51.404;5.474;2022-10-16T05:30:52;1.95;;;1.38;;
45784;SDS011;31489;51.404;5.474;2022-10-16T05:33:21;2.55;;;1.40;;
45784;SDS011;31489;51.404;5.474;2022-10-16T05:35:48;1.67;;;1.30;;
45784;SDS011;31489;51.404;5.474;2022-10-16T05:38:14;3.17;;;1.33;;
45784;SDS011;31489;51.404;5.474;2022-10-16T05:40:44;2.78;;;1.50;;
45784;SDS011;31489;51.404;5.474;2022-10-16T05:43:16;3.88;;;1.30;;
45784;SDS011;31489;51.404;5.474;2022-10-16T05:45:42;2.55;;;1.63;;
45784;SDS011;31489;51.404;5.474;2022-10-16T05:48:07;2.50;;;1.20;;
45784;SDS011;31489;51.404;5.474;2022-10-16T05:50:33;3.88;;;1.83;;
45784;SDS011;31489;51.404;5.474;2022-10-16T05:52:59;2.10;;;1.52;;
45784;SDS011;31489;51.404;5.474;2022-10-16T05:55:24;3.75;;;1.45;;
45784;SDS011;31489;51.404;5.474;2022-10-16T05:57:50;4.25;;;1.45;;
45784;SDS011;31489;51.404;5.474;2022-10-16T06:00:18;2.58;;;1.35;;
45784;SDS011;31489;51.404;5.474;2022-10-16T06:02:44;2.58;;;1.48;;
45784;SDS011;31489;51.404;5.474;2022-10-16T06:05:09;3.70;;;1.50;;
45784;SDS011;31489;51.404;5.474;2022-10-16T06:07:35;7.45;;;1.20;;
45784;SDS011;31489;51.404;5.474;2022-10-16T06:10:01;4.07;;;1.50;;
45784;SDS011;31489;51.404;5.474;2022-10-16T06:12:27;1.77;;;1.40;;
45784;SDS011;31489;51.404;5.474;2022-10-16T06:14:53;1.77;;;1.27;;
45784;SDS011;31489;51.404;5.474;2022-10-16T06:17:18;1.95;;;1.30;;
45784;SDS011;31489;51.404;5.474;2022-10-16T06:19:44;1.90;;;1.45;;
45784;SDS011;31489;51.404;5.474;2022-10-16T06:22:09;1.48;;;1.30;;
45784;SDS011;31489;51.404;5.474;2022-10-16T06:24:35;1.75;;;1.33;;
45784;SDS011;31489;51.404;5.474;2022-10-16T06:27:01;3.97;;;1.42;;
45784;SDS011;31489;51.404;5.474;2022-10-16T06:29:27;2.78;;;1.60;;
45784;SDS011;31489;51.404;5.474;2022-10-16T06:31:53;2.55;;;1.38;;
45784;SDS011;31489;51.404;5.474;2022-10-16T06:34:19;3.63;;;1.40;;
45784;SDS011;31489;51.404;5.474;2022-10-16T06:36:44;2.08;;;1.52;;
45784;SDS011;31489;51.404;5.474;2022-10-16T06:39:10;2.08;;;1.30;;
45784;SDS011;31489;51.404;5.474;2022-10-16T06:41:35;2.63;;;1.40;;
45784;SDS011;31489;51.404;5.474;2022-10-16T06:44:01;2.33;;;1.40;;
45784;SDS011;31489;51.404;5.474;2022-10-16T06:46:30;1.83;;;1.38;;
45784;SDS011;31489;51.404;5.474;2022-10-16T06:48:56;2.20;;;1.30;;
45784;SDS011;31489;51.404;5.474;2022-10-16T06:51:22;1.80;;;1.42;;
45784;SDS011;31489;51.404;5.474;2022-10-16T06:53:50;2.92;;;1.50;;
45784;SDS011;31489;51.404;5.474;2022-10-16T06:58:44;3.83;;;1.35;;
45784;SDS011;31489;51.404;5.474;2022-10-16T07:01:10;5.03;;;1.80;;
45784;SDS011;31489;51.404;5.474;2022-10-16T07:03:37;3.70;;;1.58;;
45784;SDS011;31489;51.404;5.474;2022-10-16T07:06:04;1.48;;;1.30;;
45784;SDS011;31489;51.404;5.474;2022-10-16T07:08:31;5.15;;;2.03;;
45784;SDS011;31489;51.404;5.474;2022-10-16T07:11:01;2.88;;;1.40;;
45784;SDS011;31489;51.404;5.474;2022-10-16T07:13:38;4.63;;;1.52;;
45784;SDS011;31489;51.404;5.474;2022-10-16T07:16:09;3.53;;;1.65;;
45784;SDS011;31489;51.404;5.474;2022-10-16T07:18:39;1.58;;;1.15;;
45784;SDS011;31489;51.404;5.474;2022-10-16T07:21:08;3.22;;;1.40;;
45784;SDS011;31489;51.404;5.474;2022-10-16T07:23:35;4.57;;;1.98;;
45784;SDS011;31489;51.404;5.474;2022-10-16T07:26:01;3.88;;;1.58;;
45784;SDS011;31489;51.404;5.474;2022-10-16T07:28:28;2.50;;;1.67;;
45784;SDS011;31489;51.404;5.474;2022-10-16T07:30:54;3.42;;;1.80;;
45784;SDS011;31489;51.404;5.474;2022-10-16T07:33:20;2.20;;;1.80;;
45784;SDS011;31489;51.404;5.474;2022-10-16T07:35:50;3.50;;;1.58;;
45784;SDS011;31489;51.404;5.474;2022-10-16T07:38:16;3.10;;;1.65;;
45784;SDS011;31489;51.404;5.474;2022-10-16T07:40:42;2.72;;;1.67;;
45784;SDS011;31489;51.404;5.474;2022-10-16T07:43:08;6.88;;;1.83;;
45784;SDS011;31489;51.404;5.474;2022-10-16T07:45:33;5.13;;;1.98;;
45784;SDS011;31489;51.404;5.474;2022-10-16T07:47:59;4.85;;;2.00;;
45784;SDS011;31489;51.404;5.474;2022-10-16T07:50:24;3.45;;;1.80;;
45784;SDS011;31489;51.404;5.474;2022-10-16T07:52:50;4.38;;;2.10;;
45784;SDS011;31489;51.404;5.474;2022-10-16T07:55:15;5.38;;;2.10;;
45784;SDS011;31489;51.404;5.474;2022-10-16T07:57:41;6.90;;;1.73;;
45784;SDS011;31489;51.404;5.474;2022-10-16T08:00:07;4.32;;;1.90;;
45784;SDS011;31489;51.404;5.474;2022-10-16T08:02:38;3.47;;;2.20;;
45784;SDS011;31489;51.404;5.474;2022-10-16T08:05:04;3.35;;;1.75;;
45784;SDS011;31489;51.404;5.474;2022-10-16T08:07:31;3.30;;;2.00;;
45784;SDS011;31489;51.404;5.474;2022-10-16T08:09:56;6.57;;;2.28;;
45784;SDS011;31489;51.404;5.474;2022-10-16T08:12:23;4.68;;;2.67;;
45784;SDS011;31489;51.404;5.474;2022-10-16T08:14:49;4.68;;;2.35;;
45784;SDS011;31489;51.404;5.474;2022-10-16T08:17:15;6.88;;;2.42;;
45784;SDS011;31489;51.404;5.474;2022-10-16T08:19:43;4.07;;;2.13;;
45784;SDS011;31489;51.404;5.474;2022-10-16T08:22:12;4.65;;;1.63;;
45784;SDS011;31489;51.404;5.474;2022-10-16T08:24:39;7.60;;;2.00;;
45784;SDS011;31489;51.404;5.474;2022-10-16T08:27:04;6.90;;;1.95;;
45784;SDS011;31489;51.404;5.474;2022-10-16T08:29:30;7.18;;;1.90;;
45784;SDS011;31489;51.404;5.474;2022-10-16T08:31:56;3.90;;;1.80;;
45784;SDS011;31489;51.404;5.474;2022-10-16T08:34:21;3.50;;;1.60;;
45784;SDS011;31489;51.404;5.474;2022-10-16T08:36:47;3.67;;;1.17;;
45784;SDS011;31489;51.404;5.474;2022-10-16T08:39:12;4.13;;;1.52;;
45784;SDS011;31489;51.404;5.474;2022-10-16T08:49:41;3.35;;;1.40;;
45784;SDS011;31489;51.404;5.474;2022-10-16T08:52:17;2.33;;;1.63;;
45784;SDS011;31489;51.404;5.474;2022-10-16T08:54:43;6.22;;;1.30;;
45784;SDS011;31489;51.404;5.474;2022-10-16T08:57:17;2.95;;;1.27;;
45784;SDS011;31489;51.404;5.474;2022-10-16T08:59:45;3.78;;;1.23;;
45784;SDS011;31489;51.404;5.474;2022-10-16T09:04:58;5.68;;;1.40;;
45784;SDS011;31489;51.404;5.474;2022-10-16T09:07:32;10.65;;;2.40;;
45784;SDS011;31489;51.404;5.474;2022-10-16T09:10:13;3.28;;;1.52;;
45784;SDS011;31489;51.404;5.474;2022-10-16T09:13:03;7.75;;;1.58;;
45784;SDS011;31489;51.404;5.474;2022-10-16T09:15:35;4.18;;;1.25;;
45784;SDS011;31489;51.404;5.474;2022-10-16T09:21:30;3.35;;;1.33;;
45784;SDS011;31489;51.404;5.474;2022-10-16T09:23:43;4.03;;;1.20;;
45784;SDS011;31489;51.404;5.474;2022-10-16T09:26:12;4.90;;;1.25;;
45784;SDS011;31489;51.404;5.474;2022-10-16T09:28:39;4.15;;;1.30;;
45784;SDS011;31489;51.404;5.474;2022-10-16T09:31:05;5.03;;;1.33;;
45784;SDS011;31489;51.404;5.474;2022-10-16T09:33:33;2.63;;;1.27;;
45784;SDS011;31489;51.404;5.474;2022-10-16T09:36:02;4.95;;;1.10;;
45784;SDS011;31489;51.404;5.474;2022-10-16T09:38:30;6.78;;;1.45;;
45784;SDS011;31489;51.404;5.474;2022-10-16T09:41:01;4.45;;;1.23;;
45784;SDS011;31489;51.404;5.474;2022-10-16T09:43:46;3.63;;;1.20;;
45784;SDS011;31489;51.404;5.474;2022-10-16T09:46:33;2.55;;;1.20;;
45784;SDS011;31489;51.404;5.474;2022-10-16T09:49:02;5.50;;;1.58;;
45784;SDS011;31489;51.404;5.474;2022-10-16T09:51:34;4.50;;;1.40;;
45784;SDS011;31489;51.404;5.474;2022-10-16T09:54:02;3.60;;;1.35;;
45784;SDS011;31489;51.404;5.474;2022-10-16T09:56:39;5.95;;;1.30;;
45784;SDS011;31489;51.404;5.474;2022-10-16T09:59:23;11.68;;;1.90;;
45784;SDS011;31489;51.404;5.474;2022-10-16T10:01:52;4.65;;;1.42;;
45784;SDS011;31489;51.404;5.474;2022-10-16T10:04:18;6.10;;;1.17;;
45784;SDS011;31489;51.404;5.474;2022-10-16T10:06:52;3.28;;;1.20;;
45784;SDS011;31489;51.404;5.474;2022-10-16T10:09:23;5.18;;;1.58;;
45784;SDS011;31489;51.404;5.474;2022-10-16T10:14:23;3.55;;;1.40;;
45784;SDS011;31489;51.404;5.474;2022-10-16T10:16:50;4.10;;;1.42;;
45784;SDS011;31489;51.404;5.474;2022-10-16T10:19:17;5.00;;;1.88;;
45784;SDS011;31489;51.404;5.474;2022-10-16T10:21:45;4.53;;;1.50;;
45784;SDS011;31489;51.404;5.474;2022-10-16T10:24:13;7.65;;;1.52;;
45784;SDS011;31489;51.404;5.474;2022-10-16T10:27:03;6.75;;;1.58;;
45784;SDS011;31489;51.404;5.474;2022-10-16T10:41:33;6.18;;;1.45;;
45784;SDS011;31489;51.404;5.474;2022-10-16T10:44:30;4.72;;;1.63;;
45784;SDS011;31489;51.404;5.474;2022-10-16T10:47:13;6.40;;;1.38;;
45784;SDS011;31489;51.404;5.474;2022-10-16T10:52:43;4.40;;;1.48;;
45784;SDS011;31489;51.404;5.474;2022-10-16T10:58:01;6.85;;;1.75;;
45784;SDS011;31489;51.404;5.474;2022-10-16T11:00:53;4.10;;;1.67;;
45784;SDS011;31489;51.404;5.474;2022-10-16T11:03:42;5.32;;;1.38;;
45784;SDS011;31489;51.404;5.474;2022-10-16T11:06:17;4.43;;;1.63;;
45784;SDS011;31489;51.404;5.474;2022-10-16T11:17:38;7.85;;;1.98;;
45784;SDS011;31489;51.404;5.474;2022-10-16T11:25:35;7.63;;;1.90;;
45784;SDS011;31489;51.404;5.474;2022-10-16T11:38:40;9.13;;;1.67;;
45784;SDS011;31489;51.404;5.474;2022-10-16T11:43:43;7.65;;;1.77;;
45784;SDS011;31489;51.404;5.474;2022-10-16T11:46:17;3.97;;;1.50;;
45784;SDS011;31489;51.404;5.474;2022-10-16T11:48:57;4.18;;;1.48;;
45784;SDS011;31489;51.404;5.474;2022-10-16T11:51:36;6.78;;;1.58;;
45784;SDS011;31489;51.404;5.474;2022-10-16T11:54:22;3.42;;;1.48;;
45784;SDS011;31489;51.404;5.474;2022-10-16T11:56:58;4.95;;;1.50;;
45784;SDS011;31489;51.404;5.474;2022-10-16T11:59:30;4.80;;;1.30;;
45784;SDS011;31489;51.404;5.474;2022-10-16T12:02:21;4.40;;;1.48;;
45784;SDS011;31489;51.404;5.474;2022-10-16T12:07:48;5.20;;;1.60;;
45784;SDS011;31489;51.404;5.474;2022-10-16T12:10:19;5.38;;;1.50;;
45784;SDS011;31489;51.404;5.474;2022-10-16T12:12:50;3.13;;;1.38;;
45784;SDS011;31489;51.404;5.474;2022-10-16T12:15:21;4.38;;;1.60;;
45784;SDS011;31489;51.404;5.474;2022-10-16T12:17:49;3.05;;;1.13;;
45784;SDS011;31489;51.404;5.474;2022-10-16T12:20:25;5.47;;;1.33;;
45784;SDS011;31489;51.404;5.474;2022-10-16T12:22:56;3.75;;;1.35;;
45784;SDS011;31489;51.404;5.474;2022-10-16T12:28:01;4.25;;;1.30;;
45784;SDS011;31489;51.404;5.474;2022-10-16T12:30:28;6.10;;;1.50;;
45784;SDS011;31489;51.404;5.474;2022-10-16T12:33:06;5.53;;;1.48;;
45784;SDS011;31489;51.404;5.474;2022-10-16T12:35:46;3.50;;;1.55;;
45784;SDS011;31489;51.404;5.474;2022-10-16T12:38:24;4.28;;;1.40;;
45784;SDS011;31489;51.404;5.474;2022-10-16T12:41:07;2.95;;;1.30;;
45784;SDS011;31489;51.404;5.474;2022-10-16T12:43:41;4.20;;;1.30;;
45784;SDS011;31489;51.404;5.474;2022-10-16T12:48:34;3.63;;;1.50;;
45784;SDS011;31489;51.404;5.474;2022-10-16T12:51:24;3.97;;;1.17;;
45784;SDS011;31489;51.404;5.474;2022-10-16T13:10:28;4.28;;;1.25;;
45784;SDS011;31489;51.404;5.474;2022-10-16T13:16:02;2.30;;;1.33;;
45784;SDS011;31489;51.404;5.474;2022-10-16T13:29:22;3.45;;;1.25;;
45784;SDS011;31489;51.404;5.474;2022-10-16T13:31:47;5.20;;;0.93;;
45784;SDS011;31489;51.404;5.474;2022-10-16T13:34:14;6.10;;;1.23;;
45784;SDS011;31489;51.404;5.474;2022-10-16T13:36:47;2.55;;;0.98;;
45784;SDS011;31489;51.404;5.474;2022-10-16T13:44:39;1.73;;;0.98;;
45784;SDS011;31489;51.404;5.474;2022-10-16T13:47:15;3.10;;;1.20;;
45784;SDS011;31489;51.404;5.474;2022-10-16T13:49:46;4.22;;;1.45;;
45784;SDS011;31489;51.404;5.474;2022-10-16T13:52:16;2.35;;;1.00;;
45784;SDS011;31489;51.404;5.474;2022-10-16T13:54:43;4.55;;;1.20;;
45784;SDS011;31489;51.404;5.474;2022-10-16T13:57:12;3.17;;;1.30;;
45784;SDS011;31489;51.404;5.474;2022-10-16T13:59:41;2.97;;;1.08;;
45784;SDS011;31489;51.404;5.474;2022-10-16T14:04:53;3.58;;;1.15;;
45784;SDS011;31489;51.404;5.474;2022-10-16T14:07:24;2.17;;;1.20;;
45784;SDS011;31489;51.404;5.474;2022-10-16T14:10:40;4.35;;;1.48;;
45784;SDS011;31489;51.404;5.474;2022-10-16T14:13:52;4.40;;;1.33;;
45784;SDS011;31489;51.404;5.474;2022-10-16T14:15:57;7.40;;;1.48;;
45784;SDS011;31489;51.404;5.474;2022-10-16T14:18:27;4.63;;;1.17;;
45784;SDS011;31489;51.404;5.474;2022-10-16T14:20:54;2.55;;;1.17;;
45784;SDS011;31489;51.404;5.474;2022-10-16T14:23:28;3.55;;;1.55;;
45784;SDS011;31489;51.404;5.474;2022-10-16T14:28:38;3.13;;;1.13;;
45784;SDS011;31489;51.404;5.474;2022-10-16T14:33:53;6.35;;;3.97;;
45784;SDS011;31489;51.404;5.474;2022-10-16T14:36:19;8.93;;;2.60;;
45784;SDS011;31489;51.404;5.474;2022-10-16T14:41:24;4.03;;;1.60;;
45784;SDS011;31489;51.404;5.474;2022-10-16T14:43:51;3.15;;;1.60;;
45784;SDS011;31489;51.404;5.474;2022-10-16T14:46:21;4.38;;;1.70;;
45784;SDS011;31489;51.404;5.474;2022-10-16T14:48:58;2.75;;;1.45;;
45784;SDS011;31489;51.404;5.474;2022-10-16T14:51:27;3.22;;;1.50;;
45784;SDS011;31489;51.404;5.474;2022-10-16T14:53:53;6.55;;;1.50;;
45784;SDS011;31489;51.404;5.474;2022-10-16T14:56:19;2.90;;;1.40;;
45784;SDS011;31489;51.404;5.474;2022-10-16T14:58:49;2.15;;;1.02;;
45784;SDS011;31489;51.404;5.474;2022-10-16T15:01:16;2.78;;;1.23;;
45784;SDS011;31489;51.404;5.474;2022-10-16T15:03:42;2.58;;;1.55;;
45784;SDS011;31489;51.404;5.474;2022-10-16T15:06:09;5.82;;;1.98;;
45784;SDS011;31489;51.404;5.474;2022-10-16T15:08:36;4.28;;;2.20;;
45784;SDS011;31489;51.404;5.474;2022-10-16T15:11:02;4.60;;;2.15;;
45784;SDS011;31489;51.404;5.474;2022-10-16T15:13:28;4.13;;;2.97;;
45784;SDS011;31489;51.404;5.474;2022-10-16T15:15:54;10.15;;;2.15;;
45784;SDS011;31489;51.404;5.474;2022-10-16T15:18:20;4.00;;;1.33;;
45784;SDS011;31489;51.404;5.474;2022-10-16T15:20:48;5.03;;;1.80;;
45784;SDS011;31489;51.404;5.474;2022-10-16T15:23:18;3.95;;;1.67;;
45784;SDS011;31489;51.404;5.474;2022-10-16T15:25:50;4.00;;;1.52;;
45784;SDS011;31489;51.404;5.474;2022-10-16T15:28:17;7.95;;;4.90;;
45784;SDS011;31489;51.404;5.474;2022-10-16T15:30:45;4.55;;;2.75;;
45784;SDS011;31489;51.404;5.474;2022-10-16T15:33:15;3.30;;;1.90;;
45784;SDS011;31489;51.404;5.474;2022-10-16T15:35:45;3.10;;;1.58;;
45784;SDS011;31489;51.404;5.474;2022-10-16T15:38:12;4.93;;;1.70;;
45784;SDS011;31489;51.404;5.474;2022-10-16T15:40:38;2.80;;;1.75;;
45784;SDS011;31489;51.404;5.474;2022-10-16T15:43:05;5.47;;;1.20;;
45784;SDS011;31489;51.404;5.474;2022-10-16T15:45:30;2.60;;;1.35;;
45784;SDS011;31489;51.404;5.474;2022-10-16T15:47:56;2.47;;;1.55;;
45784;SDS011;31489;51.404;5.474;2022-10-16T15:50:21;3.00;;;1.50;;
45784;SDS011;31489;51.404;5.474;2022-10-16T15:52:47;3.70;;;1.15;;
45784;SDS011;31489;51.404;5.474;2022-10-16T15:55:14;5.13;;;1.52;;
45784;SDS011;31489;51.404;5.474;2022-10-16T15:57:40;3.42;;;1.38;;
45784;SDS011;31489;51.404;5.474;2022-10-16T16:00:09;3.72;;;1.70;;
45784;SDS011;31489;51.404;5.474;2022-10-16T16:02:40;6.10;;;2.00;;
45784;SDS011;31489;51.404;5.474;2022-10-16T16:05:06;3.78;;;1.80;;
45784;SDS011;31489;51.404;5.474;2022-10-16T16:07:34;6.45;;;1.70;;
45784;SDS011;31489;51.404;5.474;2022-10-16T16:10:00;2.97;;;1.73;;
45784;SDS011;31489;51.404;5.474;2022-10-16T16:12:26;8.63;;;2.00;;
45784;SDS011;31489;51.404;5.474;2022-10-16T16:14:52;5.32;;;2.10;;
45784;SDS011;31489;51.404;5.474;2022-10-16T16:17:17;4.28;;;1.90;;
45784;SDS011;31489;51.404;5.474;2022-10-16T16:19:43;2.70;;;1.83;;
45784;SDS011;31489;51.404;5.474;2022-10-16T16:22:10;2.75;;;2.13;;
45784;SDS011;31489;51.404;5.474;2022-10-16T16:24:35;5.82;;;2.30;;
45784;SDS011;31489;51.404;5.474;2022-10-16T16:27:01;5.07;;;2.55;;
45784;SDS011;31489;51.404;5.474;2022-10-16T16:29:26;4.95;;;2.50;;
45784;SDS011;31489;51.404;5.474;2022-10-16T16:31:52;4.57;;;2.25;;
45784;SDS011;31489;51.404;5.474;2022-10-16T16:34:22;4.20;;;2.30;;
45784;SDS011;31489;51.404;5.474;2022-10-16T16:36:49;6.78;;;2.53;;
45784;SDS011;31489;51.404;5.474;2022-10-16T16:39:15;3.63;;;2.33;;
45784;SDS011;31489;51.404;5.474;2022-10-16T16:41:40;7.68;;;3.00;;
45784;SDS011;31489;51.404;5.474;2022-10-16T16:44:07;11.00;;;4.75;;
45784;SDS011;31489;51.404;5.474;2022-10-16T16:46:35;7.18;;;3.65;;
45784;SDS011;31489;51.404;5.474;2022-10-16T16:49:01;6.43;;;3.35;;
45784;SDS011;31489;51.404;5.474;2022-10-16T16:51:27;7.95;;;3.40;;
45784;SDS011;31489;51.404;5.474;2022-10-16T16:53:53;5.80;;;2.85;;
45784;SDS011;31489;51.404;5.474;2022-10-16T16:56:20;6.22;;;2.88;;
45784;SDS011;31489;51.404;5.474;2022-10-16T16:58:47;10.65;;;6.25;;
45784;SDS011;31489;51.404;5.474;2022-10-16T17:01:13;10.52;;;4.88;;
45784;SDS011;31489;51.404;5.474;2022-10-16T17:03:41;7.75;;;3.92;;
45784;SDS011;31489;51.404;5.474;2022-10-16T17:06:09;9.90;;;4.53;;
45784;SDS011;31489;51.404;5.474;2022-10-16T17:08:36;8.77;;;4.25;;
45784;SDS011;31489;51.404;5.474;2022-10-16T17:11:02;11.18;;;5.57;;
45784;SDS011;31489;51.404;5.474;2022-10-16T17:13:29;10.90;;;5.93;;